createdAt,value
2023-03-29T08:47:13.376Z,97879.75
2023-03-29T08:49:40.551Z,97880.69
2023-03-29T08:52:14.537Z,97888.63
2023-03-29T08:54:42.778Z,97879.09
2023-03-29T08:57:14.539Z,97885.41
2023-03-29T08:59:41.661Z,97890.47
2023-03-29T09:02:15.146Z,97878.03
2023-03-29T09:04:42.397Z,97881.28
2023-03-29T09:07:09.928Z,97884.25
2023-03-29T09:09:37.114Z,97891.38
2023-03-29T09:12:08.526Z,97882.38
2023-03-29T09:14:45.825Z,97877.69
2023-03-29T09:17:19.091Z,97881.25
2023-03-29T09:19:49.161Z,97886.69
2023-03-29T09:22:19.423Z,97887.63
2023-03-29T09:24:55.175Z,97881.03
2023-03-29T09:27:24.439Z,97878.63
2023-03-29T09:29:56.666Z,97879.31
2023-03-29T09:32:27.718Z,97886.44
2023-03-29T09:34:58.924Z,97893.09
2023-03-29T09:37:29.899Z,97890.00
2023-03-29T09:39:57.334Z,97886.13
2023-03-29T09:42:24.583Z,97882.44
2023-03-29T09:44:52.894Z,97881.97
2023-03-29T09:47:22.164Z,97881.81
2023-03-29T09:49:52.319Z,97889.09
2023-03-29T09:52:19.663Z,97883.78
2023-03-29T09:54:46.935Z,97881.50
2023-03-29T09:57:16.410Z,97878.59
2023-03-29T09:59:43.788Z,97881.72
2023-03-29T10:02:11.764Z,97878.38
2023-03-29T10:04:39.124Z,97883.78
2023-03-29T10:07:08.008Z,97877.78
2023-03-29T10:09:35.226Z,97881.56
2023-03-29T10:12:06.213Z,97886.34
2023-03-29T10:14:35.212Z,97867.97
2023-03-29T10:17:04.553Z,97884.03
2023-03-29T10:19:32.576Z,97877.94
2023-03-29T10:22:00.486Z,97869.91
2023-03-29T10:24:29.154Z,97868.78
2023-03-29T10:26:58.437Z,97864.56
2023-03-29T10:29:26.270Z,97859.88
2023-03-29T10:31:53.566Z,97874.13
2023-03-29T10:34:20.941Z,97868.50
2023-03-29T10:36:52.408Z,97867.94
2023-03-29T10:39:19.789Z,97873.38
2023-03-29T10:41:50.254Z,97865.47
2023-03-29T10:44:28.651Z,97870.91
2023-03-29T10:46:57.028Z,97871.69
2023-03-29T10:49:24.233Z,97868.47
2023-03-29T10:51:51.482Z,97866.63
2023-03-29T10:54:20.404Z,97854.78
2023-03-29T10:56:51.359Z,97850.22
2023-03-29T10:59:26.058Z,97846.63
2023-03-29T11:02:10.469Z,97853.22
2023-03-29T11:04:39.154Z,97852.16
2023-03-29T11:07:19.835Z,97854.44
2023-03-29T11:09:48.569Z,97849.69
2023-03-29T11:12:18.939Z,97847.50
2023-03-29T11:14:52.400Z,97856.91
2023-03-29T11:17:26.906Z,97846.84
2023-03-29T11:20:03.100Z,97838.50
2023-03-29T11:22:37.747Z,97836.91
2023-03-29T11:25:13.931Z,97838.59
2023-03-29T11:27:45.927Z,97844.16
2023-03-29T11:30:15.944Z,97846.28
2023-03-29T11:32:48.393Z,97840.53
2023-03-29T11:35:36.586Z,97841.28
2023-03-29T11:38:07.271Z,97840.38
2023-03-29T11:40:44.376Z,97843.31
2023-03-29T11:43:14.682Z,97845.34
